sensor_id;sensor_type;location;lat;lon;timestamp;pressure;altitude;pressure_sealevel;temperature;humidity
61474;BME280;53694;49.784;30.150;2022-08-19T00:00:46;99218.59;;;21.67;67.08
61474;BME280;53694;49.784;30.150;2022-08-19T00:01:49;99223.83;;;21.78;66.36
61474;BME280;53694;49.784;30.150;2022-08-19T00:02:51;99219.47;;;21.77;66.25
61474;BME280;53694;49.784;30.150;2022-08-19T00:03:53;99217.03;;;21.66;66.55
61474;BME280;53694;49.784;30.150;2022-08-19T00:04:54;99221.38;;;21.55;66.93
61474;BME280;53694;49.784;30.150;2022-08-19T00:05:56;99228.51;;;21.43;67.38
61474;BME280;53694;49.784;30.150;2022-08-19T00:06:58;99231.70;;;21.29;67.50
61474;BME280;53694;49.784;30.150;2022-08-19T00:08:00;99226.52;;;21.14;68.04
61474;BME280;53694;49.784;30.150;2022-08-19T00:09:04;99226.16;;;21.00;68.75
61474;BME280;53694;49.784;30.150;2022-08-19T00:10:08;99220.08;;;20.88;69.21
61474;BME280;53694;49.784;30.150;2022-08-19T00:11:11;99228.40;;;20.76;69.38
61474;BME280;53694;49.784;30.150;2022-08-19T00:12:13;99235.06;;;20.65;69.78
61474;BME280;53694;49.784;30.150;2022-08-19T00:13:15;99228.52;;;20.56;70.29
61474;BME280;53694;49.784;30.150;2022-08-19T00:14:17;99236.31;;;20.48;70.28
61474;BME280;53694;49.784;30.150;2022-08-19T00:15:20;99228.55;;;20.39;70.54
61474;BME280;53694;49.784;30.150;2022-08-19T00:16:24;99230.97;;;20.37;70.85
61474;BME280;53694;49.784;30.150;2022-08-19T00:17:26;99232.30;;;20.49;70.96
61474;BME280;53694;49.784;30.150;2022-08-19T00:18:27;99236.53;;;20.70;70.52
61474;BME280;53694;49.784;30.150;2022-08-19T00:19:30;99243.77;;;20.96;69.64
61474;BME280;53694;49.784;30.150;2022-08-19T00:20:32;99244.20;;;21.24;68.52
61474;BME280;53694;49.784;30.150;2022-08-19T00:21:34;99240.58;;;21.53;67.53
61474;BME280;53694;49.784;30.150;2022-08-19T00:22:37;99248.66;;;21.76;66.71
61474;BME280;53694;49.784;30.150;2022-08-19T00:23:39;99241.94;;;21.86;66.26
61474;BME280;53694;49.784;30.150;2022-08-19T00:24:41;99235.57;;;21.86;65.99
61474;BME280;53694;49.784;30.150;2022-08-19T00:25:42;99239.81;;;21.78;66.14
61474;BME280;53694;49.784;30.150;2022-08-19T00:26:45;99249.75;;;21.66;66.29
61474;BME280;53694;49.784;30.150;2022-08-19T00:27:47;99241.36;;;21.53;66.60
61474;BME280;53694;49.784;30.150;2022-08-19T00:28:48;99254.98;;;21.38;67.07
61474;BME280;53694;49.784;30.150;2022-08-19T00:29:50;99248.11;;;21.27;67.55
61474;BME280;53694;49.784;30.150;2022-08-19T00:30:52;99239.37;;;21.12;67.77
61474;BME280;53694;49.784;30.150;2022-08-19T00:31:54;99249.72;;;20.99;68.03
61474;BME280;53694;49.784;30.150;2022-08-19T00:32:57;99244.09;;;20.86;68.41
61474;BME280;53694;49.784;30.150;2022-08-19T00:33:59;99253.18;;;20.74;69.02
61474;BME280;53694;49.784;30.150;2022-08-19T00:35:01;99245.08;;;20.63;69.32
61474;BME280;53694;49.784;30.150;2022-08-19T00:36:05;99244.56;;;20.52;69.60
61474;BME280;53694;49.784;30.150;2022-08-19T00:37:08;99244.74;;;20.44;70.13
61474;BME280;53694;49.784;30.150;2022-08-19T00:38:09;99246.14;;;20.36;70.45
61474;BME280;53694;49.784;30.150;2022-08-19T00:39:13;99251.55;;;20.27;70.67
61474;BME280;53694;49.784;30.150;2022-08-19T00:40:17;99247.98;;;20.27;71.28
61474;BME280;53694;49.784;30.150;2022-08-19T00:41:20;99256.43;;;20.39;70.93
61474;BME280;53694;49.784;30.150;2022-08-19T00:42:22;99249.10;;;20.62;70.46
61474;BME280;53694;49.784;30.150;2022-08-19T00:43:25;99252.69;;;20.91;69.42
61474;BME280;53694;49.784;30.150;2022-08-19T00:44:29;99254.14;;;21.25;67.86
61474;BME280;53694;49.784;30.150;2022-08-19T00:45:31;99250.41;;;21.57;66.70
61474;BME280;53694;49.784;30.150;2022-08-19T00:46:34;99260.05;;;21.82;65.64
61474;BME280;53694;49.784;30.150;2022-08-19T00:47:37;99249.76;;;21.91;65.08
61474;BME280;53694;49.784;30.150;2022-08-19T00:48:39;99251.00;;;21.90;64.98
61474;BME280;53694;49.784;30.150;2022-08-19T00:49:48;99249.33;;;21.80;64.98
61474;BME280;53694;49.784;30.150;2022-08-19T00:50:48;99247.77;;;21.66;65.02
61474;BME280;53694;49.784;30.150;2022-08-19T00:51:53;99245.48;;;21.49;65.71
61474;BME280;53694;49.784;30.150;2022-08-19T00:52:55;99252.36;;;21.31;66.26
61474;BME280;53694;49.784;30.150;2022-08-19T00:53:57;99250.08;;;21.13;66.60
61474;BME280;53694;49.784;30.150;2022-08-19T00:55:00;99243.77;;;20.96;67.07
61474;BME280;53694;49.784;30.150;2022-08-19T00:56:03;99253.75;;;20.81;67.67
61474;BME280;53694;49.784;30.150;2022-08-19T00:57:08;99254.50;;;20.69;68.02
61474;BME280;53694;49.784;30.150;2022-08-19T00:58:13;99251.20;;;20.58;68.57
61474;BME280;53694;49.784;30.150;2022-08-19T00:59:16;99248.25;;;20.49;69.01
61474;BME280;53694;49.784;30.150;2022-08-19T01:00:21;99245.36;;;20.36;69.35
61474;BME280;53694;49.784;30.150;2022-08-19T01:01:23;99243.61;;;20.26;69.80
61474;BME280;53694;49.784;30.150;2022-08-19T01:02:26;99254.17;;;20.18;70.38
61474;BME280;53694;49.784;30.150;2022-08-19T01:03:28;99250.77;;;20.10;70.76
61474;BME280;53694;49.784;30.150;2022-08-19T01:04:30;99255.72;;;20.03;70.97
61474;BME280;53694;49.784;30.150;2022-08-19T01:05:32;99250.16;;;20.03;71.15
61474;BME280;53694;49.784;30.150;2022-08-19T01:06:37;99254.59;;;20.16;71.18
61474;BME280;53694;49.784;30.150;2022-08-19T01:07:40;99245.27;;;20.39;70.50
61474;BME280;53694;49.784;30.150;2022-08-19T01:08:42;99243.67;;;20.71;69.45
61474;BME280;53694;49.784;30.150;2022-08-19T01:09:43;99242.02;;;21.03;68.44
61474;BME280;53694;49.784;30.150;2022-08-19T01:10:54;99254.30;;;21.34;67.52
61474;BME280;53694;49.784;30.150;2022-08-19T01:11:57;99253.20;;;21.57;66.68
61474;BME280;53694;49.784;30.150;2022-08-19T01:12:59;99258.48;;;21.68;65.99
61474;BME280;53694;49.784;30.150;2022-08-19T01:14:03;99246.96;;;21.66;65.83
61474;BME280;53694;49.784;30.150;2022-08-19T01:15:08;99250.41;;;21.57;65.88
61474;BME280;53694;49.784;30.150;2022-08-19T01:16:13;99250.86;;;21.43;66.06
61474;BME280;53694;49.784;30.150;2022-08-19T01:17:16;99244.98;;;21.25;66.69
61474;BME280;53694;49.784;30.150;2022-08-19T01:18:19;99245.14;;;21.05;67.25
61474;BME280;53694;49.784;30.150;2022-08-19T01:19:37;99246.42;;;20.87;67.77
61474;BME280;53694;49.784;30.150;2022-08-19T01:20:37;99248.47;;;20.70;68.48
61474;BME280;53694;49.784;30.150;2022-08-19T01:21:45;99244.56;;;20.52;69.26
61474;BME280;53694;49.784;30.150;2022-08-19T01:22:54;99245.27;;;20.39;69.82
61474;BME280;53694;49.784;30.150;2022-08-19T01:23:57;99247.17;;;20.26;70.26
61474;BME280;53694;49.784;30.150;2022-08-19T01:24:59;99247.90;;;20.14;70.83
61474;BME280;53694;49.784;30.150;2022-08-19T01:26:02;99247.70;;;20.05;71.26
61474;BME280;53694;49.784;30.150;2022-08-19T01:27:05;99243.02;;;20.02;71.55
61474;BME280;53694;49.784;30.150;2022-08-19T01:28:07;99243.19;;;20.11;71.48
61474;BME280;53694;49.784;30.150;2022-08-19T01:29:09;99237.53;;;20.31;70.94
61474;BME280;53694;49.784;30.150;2022-08-19T01:30:19;99242.14;;;20.54;70.12
61474;BME280;53694;49.784;30.150;2022-08-19T01:31:23;99237.00;;;20.81;69.49
61474;BME280;53694;49.784;30.150;2022-08-19T01:32:25;99236.91;;;21.14;68.37
61474;BME280;53694;49.784;30.150;2022-08-19T01:33:26;99238.90;;;21.42;67.33
61474;BME280;53694;49.784;30.150;2022-08-19T01:34:28;99241.94;;;21.61;66.70
61474;BME280;53694;49.784;30.150;2022-08-19T01:35:30;99244.16;;;21.66;66.15
61474;BME280;53694;49.784;30.150;2022-08-19T01:36:43;99242.71;;;21.61;66.10
61474;BME280;53694;49.784;30.150;2022-08-19T01:37:43;99243.05;;;21.51;66.35
61474;BME280;53694;49.784;30.150;2022-08-19T01:38:45;99235.59;;;21.31;66.49
61474;BME280;53694;49.784;30.150;2022-08-19T01:39:47;99237.78;;;21.11;67.08
61474;BME280;53694;49.784;30.150;2022-08-19T01:40:49;99230.36;;;20.91;67.41
61474;BME280;53694;49.784;30.150;2022-08-19T01:41:51;99241.24;;;20.73;68.16
61474;BME280;53694;49.784;30.150;2022-08-19T01:42:53;99237.25;;;20.58;68.85
61474;BME280;53694;49.784;30.150;2022-08-19T01:43:55;99233.22;;;20.42;69.40
61474;BME280;53694;49.784;30.150;2022-08-19T01:44:57;99236.72;;;20.30;69.92
61474;BME280;53694;49.784;30.150;2022-08-19T01:45:58;99228.27;;;20.17;70.69
61474;BME280;53694;49.784;30.150;2022-08-19T01:47:01;99230.97;;;20.05;70.91
61474;BME280;53694;49.784;30.150;2022-08-19T01:48:03;99236.05;;;19.93;71.42
61474;BME280;53694;49.784;30.150;2022-08-19T01:49:06;99240.91;;;19.89;71.63
61474;BME280;53694;49.784;30.150;2022-08-19T01:50:10;99235.18;;;19.96;71.75
61474;BME280;53694;49.784;30.150;2022-08-19T01:51:13;99230.73;;;20.15;71.36
61474;BME280;53694;49.784;30.150;2022-08-19T01:52:14;99234.91;;;20.40;70.53
61474;BME280;53694;49.784;30.150;2022-08-19T01:53:16;99231.82;;;20.67;69.26
61474;BME280;53694;49.784;30.150;2022-08-19T01:54:20;99227.91;;;20.93;68.55
61474;BME280;53694;49.784;30.150;2022-08-19T01:55:22;99233.46;;;21.22;67.59
61474;BME280;53694;49.784;30.150;2022-08-19T01:56:26;99232.08;;;21.43;66.76
61474;BME280;53694;49.784;30.150;2022-08-19T01:57:28;99231.09;;;21.50;66.44
61474;BME280;53694;49.784;30.150;2022-08-19T01:58:43;99237.67;;;21.43;66.22
61474;BME280;53694;49.784;30.150;2022-08-19T01:59:42;99235.59;;;21.31;66.48
61474;BME280;53694;49.784;30.150;2022-08-19T02:00:45;99234.98;;;21.11;67.18
61474;BME280;53694;49.784;30.150;2022-08-19T02:01:47;99235.95;;;20.91;67.76
61474;BME280;53694;49.784;30.150;2022-08-19T02:02:48;99237.31;;;20.70;68.34
61474;BME280;53694;49.784;30.150;2022-08-19T02:03:50;99236.20;;;20.52;69.01
61474;BME280;53694;49.784;30.150;2022-08-19T02:04:52;99231.84;;;20.34;69.73
61474;BME280;53694;49.784;30.150;2022-08-19T02:05:56;99236.64;;;20.17;70.50
61474;BME280;53694;49.784;30.150;2022-08-19T02:06:59;99239.00;;;20.03;71.12
61474;BME280;53694;49.784;30.150;2022-08-19T02:08:01;99240.13;;;19.89;71.79
61474;BME280;53694;49.784;30.150;2022-08-19T02:09:05;99245.08;;;19.81;72.43
61474;BME280;53694;49.784;30.150;2022-08-19T02:10:10;99235.75;;;19.88;72.46
61474;BME280;53694;49.784;30.150;2022-08-19T02:11:19;99242.94;;;20.05;72.46
61474;BME280;53694;49.784;30.150;2022-08-19T02:12:21;99237.95;;;20.29;71.91
61474;BME280;53694;49.784;30.150;2022-08-19T02:13:24;99239.17;;;20.61;70.89
61474;BME280;53694;49.784;30.150;2022-08-19T02:14:26;99241.53;;;20.91;69.79
61474;BME280;53694;49.784;30.150;2022-08-19T02:15:28;99248.66;;;21.21;68.90
61474;BME280;53694;49.784;30.150;2022-08-19T02:16:30;99245.16;;;21.46;67.37
61474;BME280;53694;49.784;30.150;2022-08-19T02:17:32;99242.71;;;21.61;66.68
61474;BME280;53694;49.784;30.150;2022-08-19T02:18:34;99240.70;;;21.62;66.37
61474;BME280;53694;49.784;30.150;2022-08-19T02:19:36;99244.61;;;21.52;66.75
61474;BME280;53694;49.784;30.150;2022-08-19T02:20:41;99245.18;;;21.17;67.40
61474;BME280;53694;49.784;30.150;2022-08-19T02:21:43;99245.18;;;21.17;67.40
61474;BME280;53694;49.784;30.150;2022-08-19T02:22:45;99247.44;;;20.93;68.15
61474;BME280;53694;49.784;30.150;2022-08-19T02:23:47;99244.54;;;20.68;68.61
61474;BME280;53694;49.784;30.150;2022-08-19T02:24:49;99237.48;;;20.47;69.59
61474;BME280;53694;49.784;30.150;2022-08-19T02:25:51;99244.39;;;20.26;70.24
61474;BME280;53694;49.784;30.150;2022-08-19T02:26:53;99243.72;;;20.06;70.97
61474;BME280;53694;49.784;30.150;2022-08-19T02:27:55;99256.07;;;19.88;72.05
61474;BME280;53694;49.784;30.150;2022-08-19T02:28:57;99253.07;;;19.79;72.64
61474;BME280;53694;49.784;30.150;2022-08-19T02:29:59;99259.27;;;19.87;72.70
61474;BME280;53694;49.784;30.150;2022-08-19T02:31:01;99245.36;;;20.03;72.23
61474;BME280;53694;49.784;30.150;2022-08-19T02:32:03;99251.11;;;20.29;71.48
61474;BME280;53694;49.784;30.150;2022-08-19T02:33:05;99253.54;;;20.59;70.48
61474;BME280;53694;49.784;30.150;2022-08-19T02:34:07;99255.13;;;20.89;69.42
61474;BME280;53694;49.784;30.150;2022-08-19T02:35:09;99249.89;;;21.20;68.39
61474;BME280;53694;49.784;30.150;2022-08-19T02:36:13;99260.69;;;21.48;67.30
61474;BME280;53694;49.784;30.150;2022-08-19T02:37:16;99251.34;;;21.67;66.34
61474;BME280;53694;49.784;30.150;2022-08-19T02:38:17;99250.78;;;21.72;65.93
61474;BME280;53694;49.784;30.150;2022-08-19T02:39:19;99257.81;;;21.64;65.57
61474;BME280;53694;49.784;30.150;2022-08-19T02:40:21;99258.25;;;21.50;65.85
61474;BME280;53694;49.784;30.150;2022-08-19T02:41:26;99257.16;;;21.31;66.13
61474;BME280;53694;49.784;30.150;2022-08-19T02:42:29;99261.80;;;21.08;66.65
61474;BME280;53694;49.784;30.150;2022-08-19T02:43:32;99262.39;;;20.87;67.32
61474;BME280;53694;49.784;30.150;2022-08-19T02:44:34;99267.77;;;20.65;68.04
61474;BME280;53694;49.784;30.150;2022-08-19T02:45:38;99264.98;;;20.49;68.88
61474;BME280;53694;49.784;30.150;2022-08-19T02:46:40;99264.97;;;20.32;69.55
61474;BME280;53694;49.784;30.150;2022-08-19T02:47:42;99265.74;;;20.16;70.31
61474;BME280;53694;49.784;30.150;2022-08-19T02:48:44;99264.09;;;20.03;70.75
61474;BME280;53694;49.784;30.150;2022-08-19T02:49:46;99266.33;;;19.91;71.16
61474;BME280;53694;49.784;30.150;2022-08-19T02:50:49;99270.42;;;19.87;71.68
61474;BME280;53694;49.784;30.150;2022-08-19T02:51:51;99269.81;;;19.95;71.98
61474;BME280;53694;49.784;30.150;2022-08-19T02:52:53;99270.20;;;20.14;71.48
61474;BME280;53694;49.784;30.150;2022-08-19T02:53:55;99271.23;;;20.36;70.51
61474;BME280;53694;49.784;30.150;2022-08-19T02:54:57;99275.44;;;20.61;69.61
61474;BME280;53694;49.784;30.150;2022-08-19T02:55:58;99271.99;;;20.86;68.65
61474;BME280;53694;49.784;30.150;2022-08-19T02:57:00;99280.11;;;21.09;67.94
61474;BME280;53694;49.784;30.150;2022-08-19T02:58:02;99284.41;;;21.27;67.14
61474;BME280;53694;49.784;30.150;2022-08-19T02:59:05;99285.55;;;21.29;67.02
61474;BME280;53694;49.784;30.150;2022-08-19T03:00:08;99278.92;;;21.23;67.02
61474;BME280;53694;49.784;30.150;2022-08-19T03:01:11;99284.55;;;21.07;67.51
61474;BME280;53694;49.784;30.150;2022-08-19T03:02:15;99292.64;;;20.88;68.08
61474;BME280;53694;49.784;30.150;2022-08-19T03:03:17;99282.73;;;20.71;68.45
61474;BME280;53694;49.784;30.150;2022-08-19T03:04:19;99286.77;;;20.54;68.85
61474;BME280;53694;49.784;30.150;2022-08-19T03:05:21;99283.63;;;20.35;69.42
61474;BME280;53694;49.784;30.150;2022-08-19T03:06:26;99280.83;;;20.19;69.86
61474;BME280;53694;49.784;30.150;2022-08-19T03:07:27;99292.30;;;20.05;70.59
61474;BME280;53694;49.784;30.150;2022-08-19T03:08:29;99287.84;;;19.91;71.22
61474;BME280;53694;49.784;30.150;2022-08-19T03:09:31;99282.53;;;19.80;71.80
61474;BME280;53694;49.784;30.150;2022-08-19T03:10:39;99285.02;;;19.75;72.25
61474;BME280;53694;49.784;30.150;2022-08-19T03:11:39;99286.80;;;19.85;72.17
61474;BME280;53694;49.784;30.150;2022-08-19T03:12:41;99288.31;;;20.06;71.79
61474;BME280;53694;49.784;30.150;2022-08-19T03:13:42;99286.41;;;20.35;70.86
61474;BME280;53694;49.784;30.150;2022-08-19T03:14:44;99286.06;;;20.66;69.98
61474;BME280;53694;49.784;30.150;2022-08-19T03:15:47;99289.58;;;20.99;68.73
61474;BME280;53694;49.784;30.150;2022-08-19T03:16:51;99287.56;;;21.29;67.66
61474;BME280;53694;49.784;30.150;2022-08-19T03:17:53;99289.31;;;21.52;67.15
61474;BME280;53694;49.784;30.150;2022-08-19T03:18:56;99285.86;;;21.60;66.35
61474;BME280;53694;49.784;30.150;2022-08-19T03:19:58;99290.77;;;21.56;66.11
61474;BME280;53694;49.784;30.150;2022-08-19T03:21:01;99285.16;;;21.43;66.29
61474;BME280;53694;49.784;30.150;2022-08-19T03:22:03;99289.22;;;21.26;66.81
61474;BME280;53694;49.784;30.150;2022-08-19T03:23:04;99291.38;;;21.06;67.22
61474;BME280;53694;49.784;30.150;2022-08-19T03:24:08;99284.72;;;20.87;68.04
61474;BME280;53694;49.784;30.150;2022-08-19T03:25:10;99284.50;;;20.65;68.63
61474;BME280;53694;49.784;30.150;2022-08-19T03:26:12;99287.80;;;20.43;69.27
61474;BME280;53694;49.784;30.150;2022-08-19T03:27:14;99294.58;;;20.26;69.95
61474;BME280;53694;49.784;30.150;2022-08-19T03:28:16;99292.22;;;20.08;70.76
61474;BME280;53694;49.784;30.150;2022-08-19T03:29:18;99293.00;;;19.92;71.36
61474;BME280;53694;49.784;30.150;2022-08-19T03:30:22;99299.31;;;19.77;71.98
61474;BME280;53694;49.784;30.150;2022-08-19T03:31:26;99297.05;;;19.71;72.67
61474;BME280;53694;49.784;30.150;2022-08-19T03:32:28;99290.88;;;19.80;72.73
61474;BME280;53694;49.784;30.150;2022-08-19T03:33:31;99299.54;;;20.02;72.47
61474;BME280;53694;49.784;30.150;2022-08-19T03:34:35;99298.06;;;20.30;71.55
61474;BME280;53694;49.784;30.150;2022-08-19T03:35:38;99294.52;;;20.62;70.53
61474;BME280;53694;49.784;30.150;2022-08-19T03:36:41;99286.88;;;20.95;69.21
61474;BME280;53694;49.784;30.150;2022-08-19T03:37:42;99299.93;;;21.28;68.10
61474;BME280;53694;49.784;30.150;2022-08-19T03:38:47;99296.81;;;21.55;66.99
61474;BME280;53694;49.784;30.150;2022-08-19T03:39:49;99297.51;;;21.71;66.39
61474;BME280;53694;49.784;30.150;2022-08-19T03:40:51;99295.81;;;21.74;65.88
61474;BME280;53694;49.784;30.150;2022-08-19T03:41:53;99296.94;;;21.64;66.11
61474;BME280;53694;49.784;30.150;2022-08-19T03:42:56;99287.84;;;21.47;66.41
61474;BME280;53694;49.784;30.150;2022-08-19T03:43:58;99296.91;;;21.22;66.85
61474;BME280;53694;49.784;30.150;2022-08-19T03:45:00;99287.66;;;20.96;67.76
61474;BME280;53694;49.784;30.150;2022-08-19T03:46:08;99285.88;;;20.73;68.49
61474;BME280;53694;49.784;30.150;2022-08-19T03:47:10;99286.41;;;20.52;69.46
61474;BME280;53694;49.784;30.150;2022-08-19T03:48:12;99286.91;;;20.30;70.20
61474;BME280;53694;49.784;30.150;2022-08-19T03:49:14;99295.29;;;20.14;70.74
61474;BME280;53694;49.784;30.150;2022-08-19T03:50:18;99288.47;;;19.98;71.37
61474;BME280;53694;49.784;30.150;2022-08-19T03:51:25;99289.77;;;19.94;72.02
61474;BME280;53694;49.784;30.150;2022-08-19T03:52:25;99295.19;;;20.01;72.11
61474;BME280;53694;49.784;30.150;2022-08-19T03:53:28;99293.91;;;20.22;71.77
61474;BME280;53694;49.784;30.150;2022-08-19T03:54:30;99297.23;;;20.50;71.23
61474;BME280;53694;49.784;30.150;2022-08-19T03:55:32;99300.86;;;20.79;69.93
61474;BME280;53694;49.784;30.150;2022-08-19T03:56:36;99292.84;;;21.10;68.71
61474;BME280;53694;49.784;30.150;2022-08-19T03:57:38;99295.22;;;21.41;67.64
61474;BME280;53694;49.784;30.150;2022-08-19T03:58:40;99297.26;;;21.66;66.54
61474;BME280;53694;49.784;30.150;2022-08-19T03:59:42;99299.84;;;21.73;66.04
61474;BME280;53694;49.784;30.150;2022-08-19T04:00:44;99307.91;;;21.71;65.83
61474;BME280;53694;49.784;30.150;2022-08-19T04:01:47;99308.67;;;21.59;65.81
61474;BME280;53694;49.784;30.150;2022-08-19T04:02:49;99308.73;;;21.42;66.25
61474;BME280;53694;49.784;30.150;2022-08-19T04:03:51;99315.58;;;21.25;66.82
61474;BME280;53694;49.784;30.150;2022-08-19T04:04:53;99312.14;;;21.05;67.44
61474;BME280;53694;49.784;30.150;2022-08-19T04:05:55;99307.83;;;20.87;68.12
61474;BME280;53694;49.784;30.150;2022-08-19T04:06:57;99301.57;;;20.67;68.77
61474;BME280;53694;49.784;30.150;2022-08-19T04:07:59;99318.31;;;20.51;69.48
61474;BME280;53694;49.784;30.150;2022-08-19T04:09:04;99313.52;;;20.35;70.12
61474;BME280;53694;49.784;30.150;2022-08-19T04:10:07;99311.83;;;20.21;70.72
61474;BME280;53694;49.784;30.150;2022-08-19T04:11:15;99306.59;;;20.07;71.30
61474;BME280;53694;49.784;30.150;2022-08-19T04:12:17;99305.11;;;20.02;71.72
61474;BME280;53694;49.784;30.150;2022-08-19T04:13:18;99304.84;;;20.13;71.85
61474;BME280;53694;49.784;30.150;2022-08-19T04:14:23;99304.34;;;20.34;71.42
61474;BME280;53694;49.784;30.150;2022-08-19T04:15:25;99303.67;;;20.63;70.48
61474;BME280;53694;49.784;30.150;2022-08-19T04:16:27;99310.44;;;20.94;69.43
61474;BME280;53694;49.784;30.150;2022-08-19T04:17:29;99312.34;;;21.27;68.33
61474;BME280;53694;49.784;30.150;2022-08-19T04:18:32;99308.31;;;21.57;66.91
61474;BME280;53694;49.784;30.150;2022-08-19T04:19:35;99312.48;;;21.78;66.22
61474;BME280;53694;49.784;30.150;2022-08-19T04:20:46;99308.25;;;21.86;65.56
61474;BME280;53694;49.784;30.150;2022-08-19T04:21:46;99310.36;;;21.82;65.50
61474;BME280;53694;49.784;30.150;2022-08-19T04:22:48;99309.24;;;21.66;65.89
61474;BME280;53694;49.784;30.150;2022-08-19T04:23:50;99310.09;;;21.51;66.40
61474;BME280;53694;49.784;30.150;2022-08-19T04:24:52;99311.00;;;21.31;66.85
61474;BME280;53694;49.784;30.150;2022-08-19T04:25:54;99303.22;;;21.10;67.41
61474;BME280;53694;49.784;30.150;2022-08-19T04:26:56;99299.36;;;20.91;68.14
61474;BME280;53694;49.784;30.150;2022-08-19T04:27:58;99297.05;;;20.73;68.97
61474;BME280;53694;49.784;30.150;2022-08-19T04:29:00;99295.05;;;20.57;69.72
61474;BME280;53694;49.784;30.150;2022-08-19T04:30:03;99297.81;;;20.41;70.16
61474;BME280;53694;49.784;30.150;2022-08-19T04:31:05;99313.68;;;20.28;70.68
61474;BME280;53694;49.784;30.150;2022-08-19T04:32:07;99320.38;;;20.14;71.33
61474;BME280;53694;49.784;30.150;2022-08-19T04:33:09;99314.10;;;20.10;71.74
61474;BME280;53694;49.784;30.150;2022-08-19T04:34:13;99323.77;;;20.21;71.79
61474;BME280;53694;49.784;30.150;2022-08-19T04:35:16;99324.06;;;20.43;71.38
61474;BME280;53694;49.784;30.150;2022-08-19T04:36:21;99327.73;;;20.73;70.34
61474;BME280;53694;49.784;30.150;2022-08-19T04:37:23;99325.66;;;21.06;69.33
61474;BME280;53694;49.784;30.150;2022-08-19T04:38:25;99330.72;;;21.40;68.15
61474;BME280;53694;49.784;30.150;2022-08-19T04:39:29;99333.06;;;21.71;67.36
61474;BME280;53694;49.784;30.150;2022-08-19T04:40:31;99332.42;;;21.92;66.25
61474;BME280;53694;49.784;30.150;2022-08-19T04:41:34;99336.21;;;21.99;65.32
61474;BME280;53694;49.784;30.150;2022-08-19T04:42:35;99334.08;;;21.90;65.39
61474;BME280;53694;49.784;30.150;2022-08-19T04:43:38;99333.28;;;21.77;65.85
61474;BME280;53694;49.784;30.150;2022-08-19T04:44:40;99321.05;;;21.58;66.26
61474;BME280;53694;49.784;30.150;2022-08-19T04:45:45;99326.38;;;21.39;66.79
61474;BME280;53694;49.784;30.150;2022-08-19T04:46:48;99319.25;;;21.22;67.57
61474;BME280;53694;49.784;30.150;2022-08-19T04:47:54;99317.04;;;21.01;68.23
61474;BME280;53694;49.784;30.150;2022-08-19T04:48:56;99323.01;;;20.86;68.78
61474;BME280;53694;49.784;30.150;2022-08-19T04:49:58;99332.95;;;20.71;69.22
61474;BME280;53694;49.784;30.150;2022-08-19T04:51:01;99326.52;;;20.58;69.73
61474;BME280;53694;49.784;30.150;2022-08-19T04:52:04;99333.55;;;20.46;70.19
61474;BME280;53694;49.784;30.150;2022-08-19T04:53:06;99329.44;;;20.34;70.91
61474;BME280;53694;49.784;30.150;2022-08-19T04:54:08;99333.27;;;20.24;71.29
61474;BME280;53694;49.784;30.150;2022-08-19T04:55:11;99330.16;;;20.22;71.88
61474;BME280;53694;49.784;30.150;2022-08-19T04:56:16;99325.09;;;20.33;71.93
61474;BME280;53694;49.784;30.150;2022-08-19T04:57:18;99327.75;;;20.57;71.66
61474;BME280;53694;49.784;30.150;2022-08-19T04:58:20;99324.57;;;20.87;70.59
61474;BME280;53694;49.784;30.150;2022-08-19T04:59:22;99324.92;;;21.18;69.44
61474;BME280;53694;49.784;30.150;2022-08-19T05:00:25;99322.83;;;21.52;68.44
61474;BME280;53694;49.784;30.150;2022-08-19T05:01:28;99318.30;;;21.83;67.31
61474;BME280;53694;49.784;30.150;2022-08-19T05:02:30;99320.47;;;22.05;66.29
61474;BME280;53694;49.784;30.150;2022-08-19T05:03:32;99321.81;;;22.13;65.92
61474;BME280;53694;49.784;30.150;2022-08-19T05:04:35;99319.55;;;22.08;66.01
61474;BME280;53694;49.784;30.150;2022-08-19T05:05:44;99331.19;;;21.93;66.28
61474;BME280;53694;49.784;30.150;2022-08-19T05:06:43;99319.77;;;21.75;66.92
61474;BME280;53694;49.784;30.150;2022-08-19T05:07:45;99321.50;;;21.56;67.54
61474;BME280;53694;49.784;30.150;2022-08-19T05:08:47;99318.44;;;21.38;68.14
61474;BME280;53694;49.784;30.150;2022-08-19T05:09:49;99321.66;;;21.07;69.30
61474;BME280;53694;49.784;30.150;2022-08-19T05:10:51;99321.66;;;21.07;69.30
61474;BME280;53694;49.784;30.150;2022-08-19T05:11:53;99324.39;;;20.94;69.44
61474;BME280;53694;49.784;30.150;2022-08-19T05:12:55;99323.97;;;20.80;69.94
61474;BME280;53694;49.784;30.150;2022-08-19T05:13:57;99328.24;;;20.68;70.53
61474;BME280;53694;49.784;30.150;2022-08-19T05:14:59;99320.49;;;20.59;71.05
61474;BME280;53694;49.784;30.150;2022-08-19T05:16:01;99328.70;;;20.50;71.21
61474;BME280;53694;49.784;30.150;2022-08-19T05:17:03;99326.35;;;20.49;71.64
61474;BME280;53694;49.784;30.150;2022-08-19T05:18:04;99332.88;;;20.58;71.45
61474;BME280;53694;49.784;30.150;2022-08-19T05:19:06;99327.90;;;20.82;71.23
61474;BME280;53694;49.784;30.150;2022-08-19T05:20:10;99325.47;;;21.13;70.14
61474;BME280;53694;49.784;30.150;2022-08-19T05:21:13;99327.73;;;21.48;68.92
61474;BME280;53694;49.784;30.150;2022-08-19T05:22:16;99325.22;;;21.79;67.65
61474;BME280;53694;49.784;30.150;2022-08-19T05:23:17;99333.88;;;22.10;66.62
61474;BME280;53694;49.784;30.150;2022-08-19T05:24:20;99322.05;;;22.31;65.57
61474;BME280;53694;49.784;30.150;2022-08-19T05:25:23;99323.81;;;22.38;64.64
61474;BME280;53694;49.784;30.150;2022-08-19T05:26:26;99323.92;;;22.34;64.66
61474;BME280;53694;49.784;30.150;2022-08-19T05:27:27;99331.89;;;22.23;64.73
61474;BME280;53694;49.784;30.150;2022-08-19T05:28:29;99331.65;;;22.05;64.73